Fort Steele, Canada
Current Conditions -  °F | °C
As of 10:00 AM on Saturday 25 Oct 2014 (Local Time) from CYXC Reporting Station
Overcast Overcast  
Wind Chill: 39°   Ceiling: 4000
Heat Index: 39°   Visibility: 25mi
Dew Point: 32°   Wind: 2mph
Humidity: 75%   Direction: NA
Pressure: 29.88"   Gusts: NA
Location:  49.62°N, 115.63°W
Report Text: CYXC 251600Z VRB02KT 25SM BKN040 OVC160 04/00 A2988 RMK SC6AC2 SLP137
Loading
Personal Weather Stations






























Interactive Weather Map
Tropical Storm Tracking
New forecast layout! Learn more

10-Day Weather Forecast

Advertisements
Track Severe Weather on mobile